createdAt,value
2017-10-27T00:02:22.522Z,10.55
2017-10-27T00:04:50.678Z,10.58
2017-10-27T00:07:18.292Z,10.57
2017-10-27T00:09:46.228Z,10.55
2017-10-27T00:12:13.815Z,10.52
2017-10-27T00:14:41.376Z,10.51
2017-10-27T00:17:08.981Z,10.49
2017-10-27T00:19:36.577Z,10.41
2017-10-27T00:22:04.161Z,10.39
2017-10-27T00:24:31.752Z,10.38
2017-10-27T00:26:59.365Z,10.37
2017-10-27T00:29:26.945Z,10.38
2017-10-27T00:31:54.532Z,10.40
2017-10-27T00:34:22.135Z,10.44
2017-10-27T00:36:49.722Z,10.46
2017-10-27T00:39:17.366Z,10.48
2017-10-27T00:41:44.949Z,10.47
2017-10-27T00:44:12.945Z,10.48
2017-10-27T00:46:40.520Z,10.49
2017-10-27T00:49:08.114Z,10.51
2017-10-27T00:51:35.794Z,10.51
2017-10-27T00:54:03.738Z,10.50
2017-10-27T00:56:31.282Z,10.54
2017-10-27T00:58:58.831Z,10.56
2017-10-27T01:01:26.443Z,10.55
2017-10-27T01:03:54.017Z,10.55
2017-10-27T01:06:21.602Z,10.54
2017-10-27T01:08:49.195Z,10.55
2017-10-27T01:11:16.787Z,10.57
2017-10-27T01:13:44.365Z,10.58
2017-10-27T01:16:12.282Z,10.59
2017-10-27T01:18:40.193Z,10.60
2017-10-27T01:21:07.766Z,10.61
2017-10-27T01:23:35.363Z,10.63
2017-10-27T01:26:02.930Z,10.63
2017-10-27T01:28:30.496Z,10.67
2017-10-27T01:30:58.142Z,10.69
2017-10-27T01:33:25.721Z,10.70
2017-10-27T01:35:53.788Z,10.73
2017-10-27T01:38:21.764Z,10.74
2017-10-27T01:40:49.317Z,10.75
2017-10-27T01:43:16.862Z,10.75
2017-10-27T01:45:44.573Z,10.75
2017-10-27T01:48:12.159Z,10.78
2017-10-27T01:50:40.129Z,10.80
2017-10-27T01:53:07.673Z,10.78
2017-10-27T01:55:35.269Z,10.78
2017-10-27T01:58:02.829Z,10.80
2017-10-27T02:00:30.471Z,10.80
2017-10-27T02:02:58.048Z,10.80
2017-10-27T02:05:26.027Z,10.80
2017-10-27T02:07:53.589Z,10.82
2017-10-27T02:10:21.263Z,10.84
2017-10-27T02:12:48.970Z,10.84
2017-10-27T02:15:16.637Z,10.86
2017-10-27T02:17:44.239Z,10.87
2017-10-27T02:20:12.211Z,10.88
2017-10-27T02:22:40.061Z,10.90
2017-10-27T02:25:07.617Z,10.93
2017-10-27T02:27:35.183Z,10.95
2017-10-27T02:30:02.777Z,10.96
2017-10-27T02:32:30.737Z,10.99
2017-10-27T02:34:58.410Z,11.00
2017-10-27T02:37:26.058Z,11.01
2017-10-27T02:39:53.691Z,11.03
2017-10-27T02:42:21.319Z,11.03
2017-10-27T02:44:49.056Z,11.03
2017-10-27T02:47:16.631Z,11.05
2017-10-27T02:49:44.223Z,11.05
2017-10-27T02:52:11.828Z,11.06
2017-10-27T02:54:39.409Z,11.08
2017-10-27T02:57:07.100Z,11.09
2017-10-27T02:59:34.641Z,11.10
2017-10-27T03:02:02.251Z,11.12
2017-10-27T03:04:29.813Z,11.12
2017-10-27T03:06:57.394Z,11.14
2017-10-27T03:09:24.985Z,11.14
2017-10-27T03:11:52.563Z,11.16
2017-10-27T03:14:20.155Z,11.18
2017-10-27T03:16:48.040Z,11.19
2017-10-27T03:19:16.317Z,11.20
2017-10-27T03:21:44.061Z,11.20
2017-10-27T03:24:11.622Z,11.23
2017-10-27T03:26:39.207Z,11.25
2017-10-27T03:29:06.905Z,11.26
2017-10-27T03:31:34.837Z,11.29
2017-10-27T03:34:02.405Z,11.31
2017-10-27T03:36:29.966Z,11.32
2017-10-27T03:38:57.556Z,11.35
2017-10-27T03:41:25.125Z,11.37
2017-10-27T03:43:52.728Z,11.39
2017-10-27T03:46:20.293Z,11.43
2017-10-27T03:48:47.888Z,11.45
2017-10-27T03:51:15.497Z,11.47
2017-10-27T03:53:43.179Z,11.49
2017-10-27T03:56:11.155Z,11.52
2017-10-27T03:58:39.145Z,11.53
2017-10-27T04:01:06.743Z,11.56
2017-10-27T04:03:34.424Z,11.58
2017-10-27T04:06:02.001Z,11.60
2017-10-27T04:08:29.713Z,11.61
2017-10-27T04:10:57.282Z,11.64
2017-10-27T04:13:24.862Z,11.65
2017-10-27T04:15:52.477Z,11.66
2017-10-27T04:18:21.599Z,11.67
2017-10-27T04:20:49.153Z,11.68
2017-10-27T04:23:16.727Z,11.69
2017-10-27T04:25:44.387Z,11.70
2017-10-27T04:28:11.972Z,11.71
2017-10-27T04:30:39.564Z,11.71
2017-10-27T04:33:07.241Z,11.71
2017-10-27T04:35:34.859Z,11.72
2017-10-27T04:38:02.418Z,11.73
2017-10-27T04:40:30.015Z,11.74
2017-10-27T04:42:57.602Z,11.74
2017-10-27T04:45:25.176Z,11.75
2017-10-27T04:47:53.131Z,11.74
2017-10-27T04:50:20.714Z,11.76
2017-10-27T04:52:48.307Z,11.75
2017-10-27T04:55:15.920Z,11.77
2017-10-27T04:57:43.621Z,11.77
2017-10-27T05:00:11.225Z,11.78
2017-10-27T05:02:39.214Z,11.81
2017-10-27T05:05:07.239Z,11.83
2017-10-27T05:07:34.813Z,11.83
2017-10-27T05:10:02.393Z,11.82
2017-10-27T05:12:29.992Z,11.81
2017-10-27T05:14:57.555Z,11.77
2017-10-27T05:17:30.656Z,11.74
2017-10-27T05:20:03.827Z,11.74
2017-10-27T05:22:37.181Z,11.75
2017-10-27T05:25:04.777Z,11.79
2017-10-27T05:27:32.375Z,11.81
2017-10-27T05:29:59.976Z,11.82
2017-10-27T05:32:28.041Z,11.83
2017-10-27T05:34:55.606Z,11.83
2017-10-27T05:37:23.162Z,11.84
2017-10-27T05:39:50.772Z,11.87
2017-10-27T05:42:18.744Z,11.88
2017-10-27T05:44:46.634Z,11.91
2017-10-27T05:47:14.206Z,11.92
2017-10-27T05:49:42.332Z,11.92
2017-10-27T05:52:09.931Z,11.92
2017-10-27T05:54:37.528Z,11.93
2017-10-27T05:57:05.139Z,11.91
2017-10-27T05:59:33.104Z,11.92
2017-10-27T06:02:01.392Z,11.94
2017-10-27T06:04:28.986Z,11.93
2017-10-27T06:06:56.578Z,11.97
2017-10-27T06:09:24.375Z,11.99
2017-10-27T06:11:53.990Z,12.01
2017-10-27T06:14:21.686Z,12.03
2017-10-27T06:16:49.575Z,12.07
2017-10-27T06:19:19.077Z,12.11
2017-10-27T06:21:46.702Z,12.19
2017-10-27T06:24:14.399Z,12.24
2017-10-27T06:26:41.996Z,12.31
2017-10-27T06:29:09.934Z,12.37
2017-10-27T06:31:37.965Z,12.42
2017-10-27T06:34:05.576Z,12.50
2017-10-27T06:36:33.192Z,12.56
2017-10-27T06:39:00.774Z,12.64
2017-10-27T06:41:28.665Z,12.70
2017-10-27T06:43:56.268Z,12.73
2017-10-27T06:46:23.855Z,12.75
2017-10-27T06:48:51.455Z,12.76
2017-10-27T06:51:19.021Z,12.77
2017-10-27T06:53:47.338Z,12.79
2017-10-27T06:56:14.915Z,12.82
2017-10-27T06:58:42.490Z,12.82
2017-10-27T07:01:10.102Z,12.81
2017-10-27T07:03:37.684Z,12.78
2017-10-27T07:06:05.603Z,12.80
2017-10-27T07:08:33.568Z,12.81
2017-10-27T07:11:01.160Z,12.79
2017-10-27T07:13:28.762Z,12.82
2017-10-27T07:15:56.318Z,12.86
2017-10-27T07:18:24.504Z,12.92
2017-10-27T07:20:52.074Z,12.99
2017-10-27T07:23:19.801Z,13.06
2017-10-27T07:25:47.376Z,13.14
2017-10-27T07:28:14.950Z,13.18
2017-10-27T07:30:42.565Z,13.25
2017-10-27T07:33:10.551Z,13.24
2017-10-27T07:35:38.590Z,13.23
2017-10-27T07:38:06.167Z,13.20
2017-10-27T07:40:33.735Z,13.16
2017-10-27T07:43:01.307Z,13.12
2017-10-27T07:45:28.956Z,13.14
2017-10-27T07:47:56.543Z,13.11
2017-10-27T07:50:24.108Z,13.07
2017-10-27T07:52:52.656Z,13.03
2017-10-27T07:55:20.593Z,13.01
2017-10-27T07:57:48.166Z,12.98
2017-10-27T08:00:15.769Z,12.94
2017-10-27T08:02:43.707Z,12.92
2017-10-27T08:05:11.329Z,12.87
2017-10-27T08:07:39.078Z,12.86
2017-10-27T08:10:06.997Z,12.80
2017-10-27T08:12:34.569Z,12.71
2017-10-27T08:15:02.108Z,12.35
2017-10-27T08:17:29.693Z,11.95
2017-10-27T08:19:57.895Z,11.86
2017-10-27T08:22:25.494Z,11.66
2017-10-27T08:24:53.097Z,11.38
2017-10-27T08:27:20.795Z,11.37
2017-10-27T08:29:48.340Z,11.23
2017-10-27T08:32:15.906Z,11.27
2017-10-27T08:34:43.901Z,11.17
2017-10-27T08:37:11.872Z,11.21
2017-10-27T08:39:39.864Z,11.16
2017-10-27T08:42:07.430Z,11.15
2017-10-27T08:44:35.300Z,11.11
2017-10-27T08:47:02.897Z,11.06
2017-10-27T08:49:30.445Z,10.98
2017-10-27T08:51:58.097Z,10.94
2017-10-27T08:54:25.663Z,10.85
2017-10-27T08:56:53.431Z,10.80
2017-10-27T08:59:21.016Z,10.80
2017-10-27T09:01:48.920Z,10.82
2017-10-27T09:04:16.473Z,10.69
2017-10-27T09:06:44.067Z,10.73
2017-10-27T09:09:12.157Z,10.73
2017-10-27T09:11:39.761Z,10.69
2017-10-27T09:14:07.336Z,10.69
2017-10-27T09:16:34.925Z,10.57
2017-10-27T09:19:03.131Z,10.49
2017-10-27T09:21:33.239Z,10.50
2017-10-27T09:24:00.790Z,10.51
2017-10-27T09:26:28.370Z,10.45
2017-10-27T09:28:56.297Z,10.34
2017-10-27T09:31:23.897Z,10.26
2017-10-27T09:33:51.449Z,10.25
2017-10-27T09:36:19.067Z,10.14
2017-10-27T09:38:46.621Z,10.15
2017-10-27T09:41:14.219Z,10.15
2017-10-27T09:43:42.208Z,10.23
2017-10-27T09:46:10.125Z,10.13
2017-10-27T09:48:37.727Z,10.10
2017-10-27T09:51:07.722Z,10.13
2017-10-27T09:53:35.744Z,9.99
2017-10-27T09:56:03.284Z,9.93
2017-10-27T09:58:31.248Z,9.88
2017-10-27T10:00:58.814Z,9.82
2017-10-27T10:03:27.275Z,9.75
2017-10-27T10:05:55.296Z,9.63
2017-10-27T10:08:22.875Z,9.61
2017-10-27T10:10:50.459Z,9.65
2017-10-27T10:13:18.034Z,9.63
2017-10-27T10:15:45.615Z,9.61
2017-10-27T10:18:13.199Z,9.51
2017-10-27T10:20:41.333Z,9.60
2017-10-27T10:23:08.905Z,9.66
2017-10-27T10:25:36.502Z,9.61
2017-10-27T10:28:04.079Z,9.64
2017-10-27T10:30:33.279Z,9.71
2017-10-27T10:33:01.275Z,9.70
2017-10-27T10:35:28.855Z,9.77
2017-10-27T10:37:56.430Z,9.90
2017-10-27T10:40:24.007Z,9.97
2017-10-27T10:42:51.597Z,10.04
2017-10-27T10:45:19.174Z,10.13
2017-10-27T10:47:46.772Z,10.17
2017-10-27T10:50:14.377Z,10.16
2017-10-27T10:52:41.930Z,10.18
2017-10-27T10:55:09.546Z,10.42
2017-10-27T10:57:37.093Z,10.55
2017-10-27T11:00:04.655Z,10.69
2017-10-27T11:02:32.224Z,10.94
2017-10-27T11:04:59.826Z,11.20
2017-10-27T11:07:27.416Z,11.26
2017-10-27T11:09:54.996Z,11.28
2017-10-27T11:12:22.572Z,11.39
2017-10-27T11:14:50.148Z,11.36
2017-10-27T11:17:17.728Z,11.35
2017-10-27T11:19:45.310Z,11.30
2017-10-27T11:22:12.898Z,11.38
2017-10-27T11:24:40.478Z,11.41
2017-10-27T11:27:08.073Z,11.53
2017-10-27T11:29:35.642Z,11.55
2017-10-27T11:32:03.252Z,11.67
2017-10-27T11:34:31.349Z,11.70
2017-10-27T11:36:59.397Z,11.68
2017-10-27T11:39:27.007Z,11.60
2017-10-27T11:41:54.589Z,11.66
2017-10-27T11:44:22.243Z,11.78
2017-10-27T11:46:49.820Z,11.86
2017-10-27T11:49:17.414Z,11.79
2017-10-27T11:51:45.413Z,11.77
2017-10-27T11:54:12.996Z,11.86
2017-10-27T11:56:40.598Z,11.98
2017-10-27T11:59:08.170Z,11.98
2017-10-27T12:01:35.742Z,11.94
2017-10-27T12:04:04.747Z,11.86
2017-10-27T12:06:32.347Z,11.96
2017-10-27T12:09:00.442Z,12.09
2017-10-27T12:11:28.324Z,12.19
2017-10-27T12:13:56.378Z,12.28
2017-10-27T12:16:23.977Z,12.40
2017-10-27T12:18:51.553Z,12.42
2017-10-27T12:21:19.664Z,12.45
2017-10-27T12:23:47.677Z,12.62
2017-10-27T12:26:15.246Z,12.78
2017-10-27T12:28:42.875Z,12.90
2017-10-27T12:31:10.487Z,12.92
2017-10-27T12:33:38.071Z,12.86
2017-10-27T12:36:05.667Z,12.84
2017-10-27T12:38:33.205Z,12.87
2017-10-27T12:41:00.855Z,12.83
2017-10-27T12:43:28.532Z,12.65
2017-10-27T12:45:56.191Z,12.61
2017-10-27T12:48:23.770Z,12.52
2017-10-27T12:50:51.389Z,12.49
2017-10-27T12:53:18.954Z,12.61
2017-10-27T12:55:46.912Z,12.61
2017-10-27T12:58:14.459Z,12.43
2017-10-27T13:00:42.192Z,12.40
2017-10-27T13:03:09.824Z,12.54
2017-10-27T13:05:37.485Z,12.68
2017-10-27T13:08:05.097Z,12.74
2017-10-27T13:10:32.664Z,12.83
2017-10-27T13:13:00.268Z,12.78
2017-10-27T13:15:27.895Z,12.65
2017-10-27T13:17:55.504Z,12.57
2017-10-27T13:20:23.087Z,12.55
2017-10-27T13:22:50.657Z,12.51
2017-10-27T13:25:18.260Z,12.38
2017-10-27T13:27:46.247Z,12.28
2017-10-27T13:30:14.187Z,12.32
2017-10-27T13:32:41.764Z,12.33
2017-10-27T13:35:09.391Z,12.39
2017-10-27T13:37:36.979Z,12.44
2017-10-27T13:40:04.596Z,12.50
2017-10-27T13:42:32.184Z,12.53
2017-10-27T13:44:59.779Z,12.60
2017-10-27T13:47:27.407Z,12.66
2017-10-27T13:49:54.997Z,12.84
2017-10-27T13:52:22.595Z,13.09
2017-10-27T13:54:50.183Z,13.26
2017-10-27T13:57:17.771Z,13.26
2017-10-27T13:59:45.345Z,13.20
2017-10-27T14:02:13.045Z,13.26
2017-10-27T14:04:40.662Z,13.35
2017-10-27T14:07:08.255Z,13.37
2017-10-27T14:09:35.873Z,13.37
2017-10-27T14:12:03.814Z,13.37
2017-10-27T14:14:31.426Z,13.41
2017-10-27T14:16:59.455Z,13.49
2017-10-27T14:19:27.071Z,13.50
2017-10-27T14:21:54.643Z,13.54
2017-10-27T14:24:22.242Z,13.54
2017-10-27T14:26:50.306Z,13.46
2017-10-27T14:29:17.953Z,13.60
2017-10-27T14:31:45.556Z,13.64
2017-10-27T14:34:13.119Z,13.47
2017-10-27T14:36:40.721Z,13.31
2017-10-27T14:39:08.716Z,13.00
2017-10-27T14:41:36.383Z,12.51
2017-10-27T14:44:04.001Z,12.09
2017-10-27T14:46:33.099Z,11.63
2017-10-27T14:49:00.731Z,11.28
2017-10-27T14:51:29.735Z,11.21
2017-10-27T14:53:57.477Z,11.36
2017-10-27T14:56:25.076Z,11.41
2017-10-27T14:58:52.757Z,11.52
2017-10-27T15:01:20.364Z,11.57
2017-10-27T15:03:47.944Z,11.54
2017-10-27T15:06:15.565Z,11.55
2017-10-27T15:08:43.149Z,11.54
2017-10-27T15:11:11.004Z,11.53
2017-10-27T15:13:38.645Z,11.56
2017-10-27T15:16:06.396Z,11.60
2017-10-27T15:18:33.993Z,11.59
2017-10-27T15:21:01.571Z,11.56
2017-10-27T15:23:29.160Z,11.58
2017-10-27T15:25:56.753Z,11.56
2017-10-27T15:28:24.470Z,11.57
2017-10-27T15:30:52.043Z,11.56
2017-10-27T15:33:19.660Z,11.57
2017-10-27T15:35:47.929Z,11.53
2017-10-27T15:38:15.522Z,11.42
2017-10-27T15:40:43.130Z,11.33
2017-10-27T15:43:10.711Z,11.27
2017-10-27T15:45:38.299Z,11.18
2017-10-27T15:48:05.904Z,11.13
2017-10-27T15:50:33.488Z,11.13
2017-10-27T15:53:01.071Z,11.11
2017-10-27T15:55:28.643Z,11.04
2017-10-27T15:57:56.245Z,10.99
2017-10-27T16:00:23.799Z,10.97
2017-10-27T16:02:51.415Z,10.95
2017-10-27T16:05:18.977Z,10.90
2017-10-27T16:07:46.576Z,10.83
2017-10-27T16:10:14.157Z,10.79
2017-10-27T16:12:41.759Z,10.75
2017-10-27T16:15:09.360Z,10.69
2017-10-27T16:17:36.971Z,10.64
2017-10-27T16:20:04.560Z,10.63
2017-10-27T16:22:32.133Z,10.59
2017-10-27T16:24:59.762Z,10.54
2017-10-27T16:27:27.323Z,10.49
2017-10-27T16:29:54.914Z,10.44
2017-10-27T16:32:22.654Z,10.41
2017-10-27T16:34:50.272Z,10.38
2017-10-27T16:37:17.863Z,10.34
2017-10-27T16:39:45.454Z,10.31
2017-10-27T16:42:13.074Z,10.27
2017-10-27T16:44:40.643Z,10.20
2017-10-27T16:47:08.267Z,10.12
2017-10-27T16:49:35.837Z,10.09
2017-10-27T16:52:03.622Z,10.06
2017-10-27T16:54:31.690Z,10.00
2017-10-27T16:56:59.569Z,9.98
2017-10-27T16:59:27.128Z,9.96
2017-10-27T17:01:54.709Z,9.92
2017-10-27T17:04:22.344Z,9.90
2017-10-27T17:06:49.943Z,9.86
2017-10-27T17:09:17.562Z,9.81
2017-10-27T17:11:45.186Z,9.79
2017-10-27T17:14:13.123Z,9.78
2017-10-27T17:16:41.596Z,9.77
2017-10-27T17:19:09.265Z,9.74
2017-10-27T17:21:36.865Z,9.74
2017-10-27T17:24:04.886Z,9.73
2017-10-27T17:26:32.891Z,9.71
2017-10-27T17:29:00.494Z,9.71
2017-10-27T17:31:28.071Z,9.74
2017-10-27T17:33:55.696Z,9.76
2017-10-27T17:36:23.313Z,9.76
2017-10-27T17:38:50.946Z,9.78
2017-10-27T17:41:18.581Z,9.76
2017-10-27T17:43:47.584Z,9.79
2017-10-27T17:46:15.161Z,9.79
2017-10-27T17:48:42.991Z,9.80
2017-10-27T17:51:13.945Z,9.80
2017-10-27T17:53:42.949Z,9.81
2017-10-27T17:56:11.904Z,9.79
2017-10-27T17:58:41.707Z,9.80
2017-10-27T18:01:09.395Z,9.81
2017-10-27T18:03:37.265Z,9.79
2017-10-27T18:06:04.988Z,9.79
2017-10-27T18:08:32.832Z,9.76
2017-10-27T18:11:00.782Z,9.78
2017-10-27T18:13:28.532Z,9.77
2017-10-27T18:15:56.322Z,9.77
2017-10-27T18:18:25.110Z,9.76
2017-10-27T18:20:52.934Z,9.75
2017-10-27T18:23:21.353Z,9.75
2017-10-27T18:25:49.343Z,9.73
2017-10-27T18:28:17.209Z,9.69
2017-10-27T18:30:45.042Z,9.68
2017-10-27T18:33:14.271Z,9.65
2017-10-27T18:35:42.445Z,9.63
2017-10-27T18:38:10.414Z,9.58
2017-10-27T18:40:38.702Z,9.55
2017-10-27T18:43:07.657Z,9.49
2017-10-27T18:45:36.483Z,9.47
2017-10-27T18:48:04.958Z,9.42
2017-10-27T18:50:33.232Z,9.39
2017-10-27T18:53:01.147Z,9.32
2017-10-27T18:55:29.273Z,9.30
2017-10-27T18:57:57.792Z,9.25
2017-10-27T19:00:25.813Z,9.20
2017-10-27T19:02:54.418Z,9.19
2017-10-27T19:05:22.395Z,9.19
2017-10-27T19:07:50.368Z,9.16
2017-10-27T19:10:18.417Z,9.12
2017-10-27T19:12:46.280Z,9.16
2017-10-27T19:28:21.782Z,9.17
2017-10-27T19:30:49.793Z,9.18
2017-10-27T19:33:17.759Z,9.21
2017-10-27T19:35:45.727Z,9.24
2017-10-27T19:38:13.678Z,9.24
2017-10-27T19:40:42.187Z,9.27
2017-10-27T19:43:10.151Z,9.28
2017-10-27T19:45:38.836Z,9.28
2017-10-27T19:48:06.702Z,9.30
2017-10-27T19:50:35.189Z,9.32
2017-10-27T19:53:03.039Z,9.35
2017-10-27T19:55:31.465Z,9.36
2017-10-27T19:57:59.274Z,9.38
2017-10-27T20:00:29.529Z,9.40
2017-10-27T20:02:57.494Z,9.42
2017-10-27T20:05:25.467Z,9.42
2017-10-27T20:07:53.233Z,9.42
2017-10-27T20:10:21.700Z,9.44
2017-10-27T20:12:49.680Z,9.45
2017-10-27T20:15:17.546Z,9.43
2017-10-27T20:17:45.609Z,9.44
2017-10-27T20:20:13.592Z,9.43
2017-10-27T20:22:41.558Z,9.42
2017-10-27T20:25:10.143Z,9.42
2017-10-27T20:27:38.020Z,9.41
2017-10-27T20:30:05.793Z,9.42
2017-10-27T20:32:34.050Z,9.41
2017-10-27T20:35:02.779Z,9.41
2017-10-27T20:37:30.763Z,9.41
2017-10-27T20:39:59.085Z,9.39
2017-10-27T20:42:26.922Z,9.40
2017-10-27T20:44:55.026Z,9.41
2017-10-27T20:47:24.065Z,9.40
2017-10-27T20:49:51.858Z,9.40
2017-10-27T20:52:20.661Z,9.40
2017-10-27T20:54:48.364Z,9.38
2017-10-27T20:57:16.216Z,9.37
2017-10-27T20:59:44.123Z,9.36
2017-10-27T21:02:12.571Z,9.33
2017-10-27T21:04:41.443Z,9.33
2017-10-27T21:07:09.864Z,9.32
2017-10-27T21:09:37.557Z,9.31
2017-10-27T21:12:05.298Z,9.30
2017-10-27T21:14:32.887Z,9.28
2017-10-27T21:17:02.539Z,9.29
2017-10-27T21:19:30.116Z,9.29
2017-10-27T21:21:57.915Z,9.32
2017-10-27T21:24:25.523Z,9.32
2017-10-27T21:26:53.182Z,9.34
2017-10-27T21:29:20.748Z,9.33
2017-10-27T21:31:48.812Z,9.33
2017-10-27T21:34:16.406Z,9.34
2017-10-27T21:36:44.443Z,9.34
2017-10-27T21:39:13.627Z,9.31
2017-10-27T21:41:42.593Z,9.31
2017-10-27T21:44:12.056Z,9.31
2017-10-27T21:46:39.718Z,9.32
2017-10-27T21:49:07.309Z,9.32
2017-10-27T21:51:34.939Z,9.32
2017-10-27T21:54:02.542Z,9.32
2017-10-27T21:56:30.086Z,9.35
2017-10-27T21:58:57.665Z,9.33
2017-10-27T22:01:25.243Z,9.34
2017-10-27T22:03:52.836Z,9.35
2017-10-27T22:06:20.435Z,9.33
2017-10-27T22:08:48.013Z,9.35
2017-10-27T22:11:15.594Z,9.37
2017-10-27T22:13:43.197Z,9.39
2017-10-27T22:16:10.758Z,9.45
2017-10-27T22:18:38.365Z,9.45
2017-10-27T22:21:05.947Z,9.47
2017-10-27T22:23:33.527Z,9.50
2017-10-27T22:26:01.082Z,9.52
2017-10-27T22:28:28.677Z,9.52
2017-10-27T22:30:56.264Z,9.51
2017-10-27T22:33:23.882Z,9.51
2017-10-27T22:35:51.461Z,9.52
2017-10-27T22:38:19.047Z,9.51
2017-10-27T22:40:53.836Z,9.51
2017-10-27T22:43:22.469Z,9.49
2017-10-27T22:45:50.027Z,9.49
2017-10-27T22:48:17.619Z,9.47
2017-10-27T22:50:45.190Z,9.48
2017-10-27T22:53:12.837Z,9.46
2017-10-27T22:55:41.186Z,9.43
2017-10-27T22:58:09.270Z,9.41
2017-10-27T23:00:36.848Z,9.41
2017-10-27T23:03:04.419Z,9.40
2017-10-27T23:05:32.027Z,9.40
2017-10-27T23:08:05.062Z,9.40
2017-10-27T23:10:32.648Z,9.38
2017-10-27T23:13:00.211Z,9.36
2017-10-27T23:15:27.793Z,9.34
2017-10-27T23:17:55.398Z,9.32
2017-10-27T23:20:23.012Z,9.31
2017-10-27T23:22:50.578Z,9.31
2017-10-27T23:25:18.530Z,9.26
2017-10-27T23:27:46.186Z,9.24
2017-10-27T23:30:13.815Z,9.24
2017-10-27T23:32:41.376Z,9.25
2017-10-27T23:35:08.953Z,9.21
2017-10-27T23:37:37.855Z,9.18
2017-10-27T23:40:05.434Z,9.15
2017-10-27T23:42:33.399Z,9.16
2017-10-27T23:45:01.077Z,9.17
2017-10-27T23:47:28.652Z,9.14
2017-10-27T23:49:56.242Z,9.13
2017-10-27T23:52:23.804Z,9.11
2017-10-27T23:54:51.462Z,9.12
2017-10-27T23:57:19.026Z,9.12
2017-10-27T23:59:46.617Z,9.10
